Список аэропортов
Фактическая погода:

26 апреля, 12:00
Температура: +11°C (+7.7*)
Ветер: западный 9 м/с
Давление: *756 мм
разорв. обл.
кучево-дождевые 720 м
Время (МСК)Темп. СВетерВлажностьДавлениеОблачностьОсадки
09:00+8З, 6 м/с83%1007 гПаоблачно
10:00+9З, 6 м/с79%1008 гПаоблачно
11:00+10З, 6 м/с80%1008 гПаоблачнодождь
12:00+10З, 5 м/с79%1008 гПаоблачнодождь
13:00+10З, 5 м/с80%1009 гПаоблачнодождь
14:00+10З, 5 м/с82%1009 гПаоблачнодождь
15:00+10З, 5 м/с74%1008 гПаоблачнодождь
16:00+11З, 5 м/с64%1008 гПас прояснениями
17:00+11З, 6 м/с61%1009 гПас прояснениями
18:00+11З, 6 м/с63%1009 гПамалооблачно
19:00+10З, 5 м/с63%1009 гПамалооблачно
20:00+9З, 5 м/с64%1009 гПаоблачно
21:00+8З, 3 м/с70%1010 гПаясно
22:00+6ЮЗ, 2 м/с80%1010 гПаясно
23:00+5Ю, 2 м/с90%1010 гПаясно
27 апреля
00:00+4Ю, 2 м/с95%1010 гПаясно
01:00+4Ю, 3 м/с95%1010 гПаясно
02:00+4ЮЗ, 3 м/с94%1010 гПаясно
03:00+4ЮЗ, 3 м/с93%1010 гПаясно
04:00+4ЮЗ, 3 м/с95%1010 гПамалооблачно
05:00+5ЮЗ, 3 м/с93%1011 гПас прояснениями
06:00+5З, 4 м/с93%1011 гПамалооблачно
07:00+5З, 4 м/с93%1011 гПамалооблачно
08:00+6З, 4 м/с88%1012 гПас прояснениями
09:00+8З, 5 м/с78%1013 гПаоблачно
10:00+8З, 5 м/с73%1013 гПаоблачно
11:00+9З, 5 м/с66%1014 гПаоблачно
12:00+10З, 5 м/с62%1015 гПаоблачно
13:00+10З, 5 м/с65%1016 гПас прояснениями
14:00+10З, 6 м/с64%1016 гПас прояснениями
15:00+12З, 6 м/с60%1016 гПамалооблачно
16:00+12З, 6 м/с57%1016 гПаясно
17:00+12З, 6 м/с56%1017 гПаясно
18:00+12З, 5 м/с53%1017 гПаясно
19:00+11З, 4 м/с53%1017 гПаясно
20:00+10З, 3 м/с54%1017 гПаясно
21:00+8ЮЗ, 2 м/с65%1018 гПаясно
22:00+6ЮЗ, 1 м/с79%1018 гПаясно
23:00+5Ю, 2 м/с83%1018 гПаясно
28 апреля
00:00+4Ю, 2 м/с89%1018 гПамалооблачно
01:00+4Ю, 2 м/с92%1018 гПаясно
02:00+3Ю, 2 м/с91%1018 гПамалооблачно
03:00+3Ю, 2 м/с91%1018 гПас прояснениями
04:00+2Ю, 2 м/с95%1018 гПамалооблачно
05:00+2Ю, 3 м/с95%1018 гПас прояснениями
06:00+2Ю, 3 м/с94%1018 гПас прояснениями
07:00+3Ю, 3 м/с91%1018 гПаоблачно
08:00+5Ю, 3 м/с84%1018 гПас прояснениями
09:00+8Ю, 4 м/с69%1018 гПаоблачно